UHWW 241230Z 00000MPS 9999 NSC M07/M14 Q1029 R25L/0///70 NOSIG RMK QFE771
QNH:(hPa/inHg/mmHg)1029 / 30.39 / 772
QFE:(hPa/inHg/mmHg)1027 / 30.32 / 770
Temperature-7
Dew Point-14
Visibility> 10000
Weather
Cloud Cover
Transition Height1800 m./6000 ft.
Transition LevelFL70
SQUAWK